createdAt,value
2023-03-04T00:01:41.008Z,53.63
2023-03-04T00:06:43.484Z,47.77
2023-03-04T00:11:46.094Z,39.17
2023-03-04T00:16:49.219Z,38.80
2023-03-04T00:21:51.537Z,39.47
2023-03-04T00:26:53.940Z,42.30
2023-03-04T00:31:56.413Z,38.10
2023-03-04T00:37:01.520Z,37.10
2023-03-04T00:42:04.204Z,34.27
2023-03-04T00:47:06.866Z,41.37
2023-03-04T00:52:09.295Z,42.77
2023-03-04T00:57:11.598Z,43.70
2023-03-04T01:02:14.119Z,38.37
2023-03-04T01:07:16.496Z,40.27
2023-03-04T01:12:19.171Z,36.40
2023-03-04T01:17:21.563Z,40.80
2023-03-04T01:22:23.948Z,38.40
2023-03-04T01:27:26.694Z,40.47
2023-03-04T01:32:29.195Z,48.27
2023-03-04T01:37:31.632Z,37.10
2023-03-04T01:42:36.043Z,38.90
2023-03-04T01:47:38.589Z,45.03
2023-03-04T01:52:43.025Z,35.17
2023-03-04T01:57:47.556Z,42.20
2023-03-04T02:02:53.940Z,33.60
2023-03-04T02:07:57.903Z,37.17
2023-03-04T02:13:01.610Z,33.40
2023-03-04T02:18:18.431Z,33.97
2023-03-04T02:23:47.022Z,36.43
2023-03-04T02:28:51.944Z,34.53
2023-03-04T02:33:57.110Z,34.00
2023-03-04T02:39:21.952Z,34.47
2023-03-04T02:44:31.941Z,33.93
2023-03-04T02:49:35.916Z,33.67
2023-03-04T02:54:39.618Z,39.27
2023-03-04T02:59:42.947Z,43.43
2023-03-04T03:04:50.624Z,33.37
2023-03-04T03:09:55.334Z,34.43
2023-03-04T03:14:57.699Z,54.90
2023-03-04T03:20:00.879Z,37.47
2023-03-04T03:25:04.573Z,36.50
2023-03-04T03:30:10.041Z,35.57
2023-03-04T03:35:12.958Z,27.63
2023-03-04T03:40:16.974Z,38.17
2023-03-04T03:45:19.307Z,34.87
2023-03-04T03:50:21.680Z,36.60
2023-03-04T03:55:24.008Z,37.30
2023-03-04T04:00:26.390Z,38.20
2023-03-04T04:05:28.881Z,29.07
2023-03-04T04:10:31.225Z,29.43
2023-03-04T04:15:33.533Z,32.47
2023-03-04T04:20:36.573Z,30.53
2023-03-04T04:25:38.926Z,28.03
2023-03-04T04:30:41.411Z,36.57
2023-03-04T04:35:43.815Z,27.17
2023-03-04T04:40:46.186Z,30.73
2023-03-04T04:45:48.565Z,39.80
2023-03-04T04:50:55.923Z,27.50
2023-03-04T04:55:58.331Z,30.87
2023-03-04T05:01:00.681Z,29.33
2023-03-04T05:06:04.467Z,26.70
2023-03-04T05:11:07.742Z,26.70
2023-03-04T05:16:10.270Z,24.77
2023-03-04T05:21:12.873Z,26.27
2023-03-04T05:26:17.556Z,25.53
2023-03-04T05:31:19.959Z,22.67
2023-03-04T05:36:22.417Z,37.67
2023-03-04T05:41:25.901Z,50.27
2023-03-04T05:46:28.385Z,31.83
2023-03-04T05:51:30.737Z,46.90
2023-03-04T05:56:33.619Z,40.03
2023-03-04T06:01:36.019Z,48.70
2023-03-04T06:06:38.608Z,32.10
2023-03-04T06:11:41.613Z,35.10
2023-03-04T06:16:43.943Z,30.57
2023-03-04T06:21:46.250Z,31.90
2023-03-04T06:26:48.615Z,26.70
2023-03-04T06:31:51.097Z,68.60
2023-03-04T06:36:53.601Z,249.20
2023-03-04T06:41:55.942Z,61.33
2023-03-04T06:46:58.379Z,46.03
2023-03-04T06:52:01.054Z,66.03
2023-03-04T06:57:03.486Z,46.87
2023-03-04T07:02:06.892Z,37.77
2023-03-04T07:07:11.085Z,34.50
2023-03-04T07:12:13.487Z,41.43
2023-03-04T07:17:15.844Z,43.03
2023-03-04T07:22:18.226Z,35.10
2023-03-04T07:27:20.571Z,43.47
2023-03-04T07:32:23.151Z,38.13
2023-03-04T07:37:25.646Z,41.30
2023-03-04T07:42:28.045Z,96.73
2023-03-04T07:47:38.789Z,43.20
2023-03-04T07:52:47.129Z,49.53
2023-03-04T07:57:49.496Z,37.17
2023-03-04T08:02:51.931Z,32.40
2023-03-04T08:07:57.907Z,53.80
2023-03-04T08:13:00.250Z,107.23
2023-03-04T08:18:02.621Z,64.07
2023-03-04T08:23:05.153Z,113.47
2023-03-04T08:28:08.795Z,106.33
2023-03-04T08:33:11.155Z,88.53
2023-03-04T08:38:13.484Z,78.83
2023-03-04T08:43:15.864Z,137.30
2023-03-04T08:48:18.531Z,165.10
2023-03-04T08:53:21.162Z,58.40
2023-03-04T08:58:23.638Z,35.67
2023-03-04T09:03:27.017Z,47.17
2023-03-04T09:08:29.605Z,41.17
2023-03-04T09:13:32.442Z,96.03
2023-03-04T09:18:34.767Z,88.17
2023-03-04T09:23:37.852Z,151.70
2023-03-04T09:28:40.201Z,124.80
2023-03-04T09:33:43.280Z,46.57
2023-03-04T09:38:45.750Z,38.13
2023-03-04T09:43:49.203Z,39.10
2023-03-04T09:48:53.114Z,24.53
2023-03-04T09:54:26.353Z,31.83
2023-03-04T09:59:44.485Z,24.07
2023-03-04T10:04:56.800Z,21.83
2023-03-04T10:10:37.722Z,20.67
2023-03-04T10:15:44.160Z,21.00
2023-03-04T10:20:59.772Z,18.17
2023-03-04T10:26:13.734Z,50.40
2023-03-04T10:31:19.686Z,29.03
2023-03-04T10:36:31.231Z,11.57
2023-03-04T10:41:34.144Z,34.50
2023-03-04T10:46:41.732Z,46.93
2023-03-04T10:51:44.055Z,36.47
2023-03-04T10:57:04.606Z,15.60
2023-03-04T11:02:29.605Z,20.07
2023-03-04T11:07:43.565Z,22.20
2023-03-04T11:13:03.910Z,73.90
2023-03-04T11:18:13.974Z,95.53
2023-03-04T11:23:44.515Z,101.20
2023-03-04T11:28:53.656Z,44.13
2023-03-04T11:34:13.630Z,114.83
2023-03-04T11:39:26.997Z,46.67
2023-03-04T11:44:30.956Z,62.23
2023-03-04T11:49:59.695Z,40.50
2023-03-04T11:55:08.356Z,22.27
2023-03-04T12:00:22.359Z,25.97
2023-03-04T12:05:28.096Z,21.17
2023-03-04T12:10:59.723Z,17.23
2023-03-04T12:16:47.423Z,81.83
2023-03-04T12:22:26.909Z,62.93
2023-03-04T12:27:44.407Z,31.73
2023-03-04T12:32:58.215Z,45.80
2023-03-04T12:38:00.569Z,33.83
2023-03-04T12:43:12.850Z,85.97
2023-03-04T12:48:23.617Z,495.50
2023-03-04T12:53:44.263Z,78.57
2023-03-04T12:58:46.875Z,112.03
2023-03-04T13:04:03.652Z,26.10
2023-03-04T13:09:17.573Z,69.30
2023-03-04T13:14:24.817Z,61.53
2023-03-04T13:19:42.644Z,22.93
2023-03-04T13:24:47.734Z,19.70
2023-03-04T13:29:50.254Z,33.80
2023-03-04T13:34:57.755Z,41.33
2023-03-04T13:40:23.428Z,50.60
2023-03-04T13:45:33.463Z,30.60
2023-03-04T13:50:40.430Z,16.13
2023-03-04T13:55:44.154Z,23.10
2023-03-04T14:00:50.747Z,32.43
2023-03-04T14:06:22.975Z,18.73
2023-03-04T14:11:33.053Z,23.03
2023-03-04T14:16:40.991Z,16.67
2023-03-04T14:21:48.413Z,18.57
2023-03-04T14:27:03.540Z,22.03
2023-03-04T14:32:07.420Z,13.63
2023-03-04T14:37:29.450Z,14.70
2023-03-04T14:42:42.499Z,52.60
2023-03-04T14:47:48.621Z,25.17
2023-03-04T14:53:14.920Z,24.80
2023-03-04T14:58:22.559Z,55.37
2023-03-04T15:03:30.119Z,86.20
2023-03-04T15:08:37.284Z,81.77
2023-03-04T15:13:46.429Z,349.40
2023-03-04T15:19:02.228Z,78.07
2023-03-04T15:24:07.486Z,126.80
2023-03-04T15:29:18.739Z,29.97
2023-03-04T15:34:21.373Z,33.20
2023-03-04T15:39:23.898Z,23.83
2023-03-04T15:44:26.283Z,72.13
2023-03-04T15:49:29.836Z,108.47
2023-03-04T15:54:32.312Z,149.23
2023-03-04T15:59:34.627Z,64.77
2023-03-04T16:04:38.912Z,95.13
2023-03-04T16:09:41.284Z,12.50
2023-03-04T16:14:44.419Z,19.97
2023-03-04T16:19:46.962Z,18.83
2023-03-04T16:24:49.671Z,20.83
2023-03-04T16:29:53.160Z,32.60
2023-03-04T16:34:55.495Z,156.97
2023-03-04T16:39:58.957Z,97.50
2023-03-04T16:45:01.413Z,83.50
2023-03-04T16:50:03.967Z,95.70
2023-03-04T16:55:10.127Z,51.67
2023-03-04T17:00:14.185Z,43.60
2023-03-04T17:05:19.153Z,24.47
2023-03-04T17:10:23.109Z,18.63
2023-03-04T17:15:25.446Z,42.07
2023-03-04T17:20:27.805Z,62.70
2023-03-04T17:25:30.140Z,69.03
2023-03-04T17:30:32.531Z,47.07
2023-03-04T17:35:34.863Z,41.43
2023-03-04T17:40:37.323Z,322.53
2023-03-04T17:45:41.232Z,36.80
2023-03-04T17:50:50.963Z,35.83
2023-03-04T17:55:55.475Z,27.23
2023-03-04T18:01:16.685Z,54.40
2023-03-04T18:06:20.182Z,84.70
2023-03-04T18:11:24.441Z,46.13
2023-03-04T18:16:28.887Z,46.93
2023-03-04T18:21:32.216Z,34.93
2023-03-04T18:26:34.703Z,36.13
2023-03-04T18:31:37.217Z,36.57
2023-03-04T18:36:39.799Z,40.03
2023-03-04T18:41:42.122Z,37.43
2023-03-04T18:46:47.862Z,36.40
2023-03-04T18:51:50.357Z,52.77
2023-03-04T18:56:57.011Z,71.47
2023-03-04T19:02:02.181Z,43.80
2023-03-04T19:07:04.625Z,32.87
2023-03-04T19:12:07.036Z,22.47
2023-03-04T19:17:09.384Z,25.10
2023-03-04T19:22:12.799Z,27.10
2023-03-04T19:27:15.487Z,16.80
2023-03-04T19:32:18.404Z,18.70
2023-03-04T19:37:20.983Z,26.93
2023-03-04T19:42:24.302Z,21.10
2023-03-04T19:47:26.711Z,65.93
2023-03-04T19:52:29.099Z,87.20
2023-03-04T19:57:32.524Z,102.63
2023-03-04T20:02:34.938Z,32.93
2023-03-04T20:07:37.339Z,22.27
2023-03-04T20:12:39.847Z,46.03
2023-03-04T20:17:42.257Z,56.50
2023-03-04T20:22:44.665Z,61.63
2023-03-04T20:27:47.449Z,58.00
2023-03-04T20:32:49.893Z,86.90
2023-03-04T20:37:52.338Z,89.27
2023-03-04T20:42:54.712Z,145.23
2023-03-04T20:47:57.116Z,121.53
2023-03-04T20:52:59.484Z,137.27
2023-03-04T20:58:01.898Z,154.13
2023-03-04T21:03:04.384Z,106.23
2023-03-04T21:08:06.800Z,81.87
2023-03-04T21:13:12.790Z,76.17
2023-03-04T21:18:15.172Z,102.97
2023-03-04T21:23:19.108Z,311.27
2023-03-04T21:28:21.957Z,360.73
2023-03-04T21:33:29.876Z,223.57
2023-03-04T21:38:32.300Z,207.10
2023-03-04T21:43:34.622Z,200.43
2023-03-04T21:48:37.671Z,253.80
2023-03-04T21:53:40.083Z,215.40
2023-03-04T21:58:42.527Z,244.27
2023-03-04T22:03:45.995Z,195.87
2023-03-04T22:08:49.827Z,188.93
2023-03-04T22:13:57.181Z,155.80
2023-03-04T22:18:59.689Z,109.30
2023-03-04T22:24:02.145Z,122.53
2023-03-04T22:29:05.591Z,162.07
2023-03-04T22:34:11.327Z,194.53
2023-03-04T22:39:16.198Z,222.30
2023-03-04T22:44:18.977Z,300.43
2023-03-04T22:49:21.480Z,249.53
2023-03-04T22:54:23.824Z,230.83
2023-03-04T22:59:26.225Z,277.27
2023-03-04T23:04:28.570Z,291.63
2023-03-04T23:09:30.945Z,298.63
2023-03-04T23:14:33.339Z,267.87
2023-03-04T23:19:36.180Z,229.07
2023-03-04T23:24:38.672Z,216.53
2023-03-04T23:29:41.212Z,175.17
2023-03-04T23:34:43.690Z,161.13
2023-03-04T23:39:46.356Z,137.83
2023-03-04T23:44:48.701Z,145.63
2023-03-04T23:49:51.064Z,121.83
2023-03-04T23:54:53.518Z,115.17
2023-03-04T23:59:55.871Z,73.03
